sensor_id;sensor_type;location;lat;lon;timestamp;temperature;humidity
18654;DHT22;9456;47.824;16.228;2023-04-25T00:02:17;11.50;67.40
18654;DHT22;9456;47.824;16.228;2023-04-25T00:04:46;11.50;66.80
18654;DHT22;9456;47.824;16.228;2023-04-25T00:07:15;11.60;66.70
18654;DHT22;9456;47.824;16.228;2023-04-25T00:09:44;11.50;67.00
18654;DHT22;9456;47.824;16.228;2023-04-25T00:12:13;11.50;67.20
18654;DHT22;9456;47.824;16.228;2023-04-25T00:14:42;11.50;68.30
18654;DHT22;9456;47.824;16.228;2023-04-25T00:17:11;11.50;68.20
18654;DHT22;9456;47.824;16.228;2023-04-25T00:19:40;11.50;68.80
18654;DHT22;9456;47.824;16.228;2023-04-25T00:22:09;11.50;68.90
18654;DHT22;9456;47.824;16.228;2023-04-25T00:24:38;11.50;69.60
18654;DHT22;9456;47.824;16.228;2023-04-25T00:27:07;11.40;69.70
18654;DHT22;9456;47.824;16.228;2023-04-25T00:29:36;11.40;70.00
18654;DHT22;9456;47.824;16.228;2023-04-25T00:32:06;11.30;70.30
18654;DHT22;9456;47.824;16.228;2023-04-25T00:34:34;11.40;69.30
18654;DHT22;9456;47.824;16.228;2023-04-25T00:37:03;11.30;70.10
18654;DHT22;9456;47.824;16.228;2023-04-25T00:39:32;11.30;69.90
18654;DHT22;9456;47.824;16.228;2023-04-25T00:42:01;11.30;68.40
18654;DHT22;9456;47.824;16.228;2023-04-25T00:44:31;11.30;69.40
18654;DHT22;9456;47.824;16.228;2023-04-25T00:47:01;11.30;68.90
18654;DHT22;9456;47.824;16.228;2023-04-25T00:49:30;11.30;68.30
18654;DHT22;9456;47.824;16.228;2023-04-25T00:51:59;11.30;68.40
18654;DHT22;9456;47.824;16.228;2023-04-25T00:54:29;11.30;68.40
18654;DHT22;9456;47.824;16.228;2023-04-25T00:56:58;11.30;68.10
18654;DHT22;9456;47.824;16.228;2023-04-25T00:59:28;11.20;68.60
18654;DHT22;9456;47.824;16.228;2023-04-25T01:01:57;11.20;68.60
18654;DHT22;9456;47.824;16.228;2023-04-25T01:04:27;11.20;68.90
18654;DHT22;9456;47.824;16.228;2023-04-25T01:06:56;11.20;69.20
18654;DHT22;9456;47.824;16.228;2023-04-25T01:09:25;11.10;69.40
18654;DHT22;9456;47.824;16.228;2023-04-25T01:11:57;11.10;69.90
18654;DHT22;9456;47.824;16.228;2023-04-25T01:14:26;11.10;70.60
18654;DHT22;9456;47.824;16.228;2023-04-25T01:16:55;11.00;70.70
18654;DHT22;9456;47.824;16.228;2023-04-25T01:19:24;11.00;70.90
18654;DHT22;9456;47.824;16.228;2023-04-25T01:21:53;10.90;71.10
18654;DHT22;9456;47.824;16.228;2023-04-25T01:24:22;10.90;71.60
18654;DHT22;9456;47.824;16.228;2023-04-25T01:26:51;10.90;72.10
18654;DHT22;9456;47.824;16.228;2023-04-25T01:29:21;10.90;70.80
18654;DHT22;9456;47.824;16.228;2023-04-25T01:31:50;10.80;70.50
18654;DHT22;9456;47.824;16.228;2023-04-25T01:34:19;10.90;71.30
18654;DHT22;9456;47.824;16.228;2023-04-25T01:36:49;10.80;71.20
18654;DHT22;9456;47.824;16.228;2023-04-25T01:39:18;10.80;70.70
18654;DHT22;9456;47.824;16.228;2023-04-25T01:41:47;10.80;71.60
18654;DHT22;9456;47.824;16.228;2023-04-25T01:44:16;10.80;70.10
18654;DHT22;9456;47.824;16.228;2023-04-25T01:46:45;10.80;69.70
18654;DHT22;9456;47.824;16.228;2023-04-25T01:49:14;10.80;69.90
18654;DHT22;9456;47.824;16.228;2023-04-25T01:51:43;10.90;69.60
18654;DHT22;9456;47.824;16.228;2023-04-25T01:54:12;10.90;69.80
18654;DHT22;9456;47.824;16.228;2023-04-25T01:56:41;10.80;70.00
18654;DHT22;9456;47.824;16.228;2023-04-25T01:59:10;10.80;69.90
18654;DHT22;9456;47.824;16.228;2023-04-25T02:01:39;10.80;69.60
18654;DHT22;9456;47.824;16.228;2023-04-25T02:04:09;10.80;69.60
18654;DHT22;9456;47.824;16.228;2023-04-25T02:06:37;10.80;69.80
18654;DHT22;9456;47.824;16.228;2023-04-25T02:09:06;10.80;69.00
18654;DHT22;9456;47.824;16.228;2023-04-25T02:11:36;10.70;68.80
18654;DHT22;9456;47.824;16.228;2023-04-25T02:14:05;10.70;69.10
18654;DHT22;9456;47.824;16.228;2023-04-25T02:16:33;10.70;69.50
18654;DHT22;9456;47.824;16.228;2023-04-25T02:19:02;10.70;70.10
18654;DHT22;9456;47.824;16.228;2023-04-25T02:21:32;10.60;69.30
18654;DHT22;9456;47.824;16.228;2023-04-25T02:24:01;10.60;70.20
18654;DHT22;9456;47.824;16.228;2023-04-25T02:26:30;10.60;70.10
18654;DHT22;9456;47.824;16.228;2023-04-25T02:28:59;10.60;70.50
18654;DHT22;9456;47.824;16.228;2023-04-25T02:31:28;10.50;70.70
18654;DHT22;9456;47.824;16.228;2023-04-25T02:33:57;10.50;70.80
18654;DHT22;9456;47.824;16.228;2023-04-25T02:36:27;10.40;71.00
18654;DHT22;9456;47.824;16.228;2023-04-25T02:38:56;10.40;72.20
18654;DHT22;9456;47.824;16.228;2023-04-25T02:41:25;10.30;72.50
18654;DHT22;9456;47.824;16.228;2023-04-25T02:43:54;10.20;73.40
18654;DHT22;9456;47.824;16.228;2023-04-25T02:46:23;10.10;73.80
18654;DHT22;9456;47.824;16.228;2023-04-25T02:48:53;10.00;73.30
18654;DHT22;9456;47.824;16.228;2023-04-25T02:51:22;10.00;73.70
18654;DHT22;9456;47.824;16.228;2023-04-25T02:53:51;9.90;75.20
18654;DHT22;9456;47.824;16.228;2023-04-25T02:56:20;9.90;75.60
18654;DHT22;9456;47.824;16.228;2023-04-25T02:58:49;9.90;75.70
18654;DHT22;9456;47.824;16.228;2023-04-25T03:01:20;9.80;76.00
18654;DHT22;9456;47.824;16.228;2023-04-25T03:03:49;9.70;76.60
18654;DHT22;9456;47.824;16.228;2023-04-25T03:06:18;9.70;77.10
18654;DHT22;9456;47.824;16.228;2023-04-25T03:08:47;9.60;77.20
18654;DHT22;9456;47.824;16.228;2023-04-25T03:11:16;9.60;77.00
18654;DHT22;9456;47.824;16.228;2023-04-25T03:13:45;9.60;77.30
18654;DHT22;9456;47.824;16.228;2023-04-25T03:16:14;9.60;77.80
18654;DHT22;9456;47.824;16.228;2023-04-25T03:18:43;9.50;78.40
18654;DHT22;9456;47.824;16.228;2023-04-25T03:21:12;9.40;78.60
18654;DHT22;9456;47.824;16.228;2023-04-25T03:23:41;9.40;79.30
18654;DHT22;9456;47.824;16.228;2023-04-25T03:26:10;9.30;79.90
18654;DHT22;9456;47.824;16.228;2023-04-25T03:28:39;9.30;79.90
18654;DHT22;9456;47.824;16.228;2023-04-25T03:31:09;9.20;80.30
18654;DHT22;9456;47.824;16.228;2023-04-25T03:33:38;9.20;80.80
18654;DHT22;9456;47.824;16.228;2023-04-25T03:36:08;9.20;80.00
18654;DHT22;9456;47.824;16.228;2023-04-25T03:38:38;9.20;80.10
18654;DHT22;9456;47.824;16.228;2023-04-25T03:41:07;9.20;80.10
18654;DHT22;9456;47.824;16.228;2023-04-25T03:43:36;9.20;80.30
18654;DHT22;9456;47.824;16.228;2023-04-25T03:46:05;9.20;80.70
18654;DHT22;9456;47.824;16.228;2023-04-25T03:48:34;9.10;81.00
18654;DHT22;9456;47.824;16.228;2023-04-25T03:51:03;9.00;81.10
18654;DHT22;9456;47.824;16.228;2023-04-25T03:53:32;8.90;81.30
18654;DHT22;9456;47.824;16.228;2023-04-25T03:56:01;8.90;81.50
18654;DHT22;9456;47.824;16.228;2023-04-25T03:58:31;8.80;81.80
18654;DHT22;9456;47.824;16.228;2023-04-25T04:01:00;8.80;82.30
18654;DHT22;9456;47.824;16.228;2023-04-25T04:03:29;8.70;82.80
18654;DHT22;9456;47.824;16.228;2023-04-25T04:05:59;8.60;83.10
18654;DHT22;9456;47.824;16.228;2023-04-25T04:08:28;8.50;83.90
18654;DHT22;9456;47.824;16.228;2023-04-25T04:10:57;8.50;83.80
18654;DHT22;9456;47.824;16.228;2023-04-25T04:13:27;8.50;84.40
18654;DHT22;9456;47.824;16.228;2023-04-25T04:15:55;8.50;84.80
18654;DHT22;9456;47.824;16.228;2023-04-25T04:18:24;8.40;85.10
18654;DHT22;9456;47.824;16.228;2023-04-25T04:20:53;8.30;85.70
18654;DHT22;9456;47.824;16.228;2023-04-25T04:23:22;8.30;86.40
18654;DHT22;9456;47.824;16.228;2023-04-25T04:25:51;8.20;87.00
18654;DHT22;9456;47.824;16.228;2023-04-25T04:28:20;8.20;87.90
18654;DHT22;9456;47.824;16.228;2023-04-25T04:30:50;8.20;88.30
18654;DHT22;9456;47.824;16.228;2023-04-25T04:33:19;8.20;88.80
18654;DHT22;9456;47.824;16.228;2023-04-25T04:35:49;8.10;89.20
18654;DHT22;9456;47.824;16.228;2023-04-25T04:38:18;8.10;90.00
18654;DHT22;9456;47.824;16.228;2023-04-25T04:40:47;8.10;90.60
18654;DHT22;9456;47.824;16.228;2023-04-25T04:43:16;8.00;90.60
18654;DHT22;9456;47.824;16.228;2023-04-25T04:45:45;8.10;90.70
18654;DHT22;9456;47.824;16.228;2023-04-25T04:48:15;8.10;90.90
18654;DHT22;9456;47.824;16.228;2023-04-25T04:50:45;8.10;91.00
18654;DHT22;9456;47.824;16.228;2023-04-25T04:53:14;8.10;91.10
18654;DHT22;9456;47.824;16.228;2023-04-25T04:55:42;8.20;91.10
18654;DHT22;9456;47.824;16.228;2023-04-25T04:58:11;8.20;91.00
18654;DHT22;9456;47.824;16.228;2023-04-25T05:00:40;8.30;91.60
18654;DHT22;9456;47.824;16.228;2023-04-25T05:03:09;8.80;92.10
18654;DHT22;9456;47.824;16.228;2023-04-25T05:05:38;9.80;89.50
18654;DHT22;9456;47.824;16.228;2023-04-25T05:08:08;10.40;83.60
18654;DHT22;9456;47.824;16.228;2023-04-25T05:10:37;10.60;81.80
18654;DHT22;9456;47.824;16.228;2023-04-25T05:13:06;11.00;83.00
18654;DHT22;9456;47.824;16.228;2023-04-25T05:15:35;12.30;77.80
18654;DHT22;9456;47.824;16.228;2023-04-25T05:18:05;13.60;70.20
18654;DHT22;9456;47.824;16.228;2023-04-25T05:20:34;14.70;67.20
18654;DHT22;9456;47.824;16.228;2023-04-25T05:23:03;15.50;63.00
18654;DHT22;9456;47.824;16.228;2023-04-25T05:25:38;16.30;59.80
18654;DHT22;9456;47.824;16.228;2023-04-25T05:28:07;16.90;56.80
18654;DHT22;9456;47.824;16.228;2023-04-25T05:30:36;17.30;53.90
18654;DHT22;9456;47.824;16.228;2023-04-25T05:33:05;17.60;52.90
18654;DHT22;9456;47.824;16.228;2023-04-25T05:35:34;17.90;53.00
18654;DHT22;9456;47.824;16.228;2023-04-25T05:38:03;18.30;50.70
18654;DHT22;9456;47.824;16.228;2023-04-25T05:40:32;18.50;53.20
18654;DHT22;9456;47.824;16.228;2023-04-25T05:43:01;19.30;51.10
18654;DHT22;9456;47.824;16.228;2023-04-25T05:45:30;20.00;50.90
18654;DHT22;9456;47.824;16.228;2023-04-25T05:47:59;20.50;49.90
18654;DHT22;9456;47.824;16.228;2023-04-25T05:50:28;21.30;48.40
18654;DHT22;9456;47.824;16.228;2023-04-25T05:52:57;21.40;44.20
18654;DHT22;9456;47.824;16.228;2023-04-25T05:55:26;22.00;43.00
18654;DHT22;9456;47.824;16.228;2023-04-25T05:57:55;22.50;43.90
18654;DHT22;9456;47.824;16.228;2023-04-25T06:00:24;22.70;43.80
18654;DHT22;9456;47.824;16.228;2023-04-25T06:02:53;22.50;42.10
18654;DHT22;9456;47.824;16.228;2023-04-25T06:05:22;22.80;42.50
18654;DHT22;9456;47.824;16.228;2023-04-25T06:07:51;23.20;40.80
18654;DHT22;9456;47.824;16.228;2023-04-25T06:10:21;23.50;37.20
18654;DHT22;9456;47.824;16.228;2023-04-25T06:12:50;23.20;40.10
18654;DHT22;9456;47.824;16.228;2023-04-25T06:15:19;23.00;39.10
18654;DHT22;9456;47.824;16.228;2023-04-25T06:17:48;22.70;39.30
18654;DHT22;9456;47.824;16.228;2023-04-25T06:20:17;21.90;39.60
18654;DHT22;9456;47.824;16.228;2023-04-25T06:22:46;22.10;40.80
18654;DHT22;9456;47.824;16.228;2023-04-25T06:25:15;21.90;40.20
18654;DHT22;9456;47.824;16.228;2023-04-25T06:27:44;21.50;40.00
18654;DHT22;9456;47.824;16.228;2023-04-25T06:30:13;21.70;39.90
18654;DHT22;9456;47.824;16.228;2023-04-25T06:32:42;22.30;38.00
18654;DHT22;9456;47.824;16.228;2023-04-25T06:35:11;22.50;38.10
18654;DHT22;9456;47.824;16.228;2023-04-25T06:37:40;22.00;39.00
18654;DHT22;9456;47.824;16.228;2023-04-25T06:40:10;22.90;39.90
18654;DHT22;9456;47.824;16.228;2023-04-25T06:42:39;23.20;38.70
18654;DHT22;9456;47.824;16.228;2023-04-25T06:45:10;23.20;38.70
18654;DHT22;9456;47.824;16.228;2023-04-25T06:47:39;23.10;37.90
18654;DHT22;9456;47.824;16.228;2023-04-25T06:50:09;22.40;39.40
18654;DHT22;9456;47.824;16.228;2023-04-25T06:52:38;22.00;37.70
18654;DHT22;9456;47.824;16.228;2023-04-25T06:55:08;21.40;37.90
18654;DHT22;9456;47.824;16.228;2023-04-25T06:57:37;21.10;39.30
18654;DHT22;9456;47.824;16.228;2023-04-25T07:00:08;21.50;37.90
18654;DHT22;9456;47.824;16.228;2023-04-25T07:02:38;21.10;39.50
18654;DHT22;9456;47.824;16.228;2023-04-25T07:05:08;20.40;39.70
18654;DHT22;9456;47.824;16.228;2023-04-25T07:07:37;20.70;39.20
18654;DHT22;9456;47.824;16.228;2023-04-25T07:10:06;21.20;38.60
18654;DHT22;9456;47.824;16.228;2023-04-25T07:12:36;21.50;37.60
18654;DHT22;9456;47.824;16.228;2023-04-25T07:15:06;21.40;37.30
18654;DHT22;9456;47.824;16.228;2023-04-25T07:17:36;21.60;37.00
18654;DHT22;9456;47.824;16.228;2023-04-25T07:20:07;21.90;38.60
18654;DHT22;9456;47.824;16.228;2023-04-25T07:22:36;22.60;37.60
18654;DHT22;9456;47.824;16.228;2023-04-25T07:25:07;23.30;36.40
18654;DHT22;9456;47.824;16.228;2023-04-25T07:27:36;23.10;35.50
18654;DHT22;9456;47.824;16.228;2023-04-25T07:30:07;23.30;36.30
18654;DHT22;9456;47.824;16.228;2023-04-25T07:32:37;23.40;35.70
18654;DHT22;9456;47.824;16.228;2023-04-25T07:35:07;23.60;34.90
18654;DHT22;9456;47.824;16.228;2023-04-25T07:37:37;23.70;35.20
18654;DHT22;9456;47.824;16.228;2023-04-25T07:40:08;23.70;34.00
18654;DHT22;9456;47.824;16.228;2023-04-25T07:42:38;24.40;34.20
18654;DHT22;9456;47.824;16.228;2023-04-25T07:45:09;24.20;33.90
18654;DHT22;9456;47.824;16.228;2023-04-25T07:47:38;24.20;33.70
18654;DHT22;9456;47.824;16.228;2023-04-25T07:50:09;23.70;34.00
18654;DHT22;9456;47.824;16.228;2023-04-25T07:52:38;22.70;36.20
18654;DHT22;9456;47.824;16.228;2023-04-25T07:55:09;23.30;36.00
18654;DHT22;9456;47.824;16.228;2023-04-25T07:57:38;23.60;34.20
18654;DHT22;9456;47.824;16.228;2023-04-25T08:00:09;22.40;35.80
18654;DHT22;9456;47.824;16.228;2023-04-25T08:02:38;20.80;37.00
18654;DHT22;9456;47.824;16.228;2023-04-25T08:05:08;21.10;36.80
18654;DHT22;9456;47.824;16.228;2023-04-25T08:07:37;22.10;35.90
18654;DHT22;9456;47.824;16.228;2023-04-25T08:10:07;22.10;36.20
18654;DHT22;9456;47.824;16.228;2023-04-25T08:12:36;21.80;35.90
18654;DHT22;9456;47.824;16.228;2023-04-25T08:15:07;21.30;37.50
18654;DHT22;9456;47.824;16.228;2023-04-25T08:17:36;21.80;36.70
18654;DHT22;9456;47.824;16.228;2023-04-25T08:20:07;22.30;36.00
18654;DHT22;9456;47.824;16.228;2023-04-25T08:22:36;23.50;35.00
18654;DHT22;9456;47.824;16.228;2023-04-25T08:25:06;23.50;33.90
18654;DHT22;9456;47.824;16.228;2023-04-25T08:27:35;23.40;34.00
18654;DHT22;9456;47.824;16.228;2023-04-25T08:30:05;23.40;35.60
18654;DHT22;9456;47.824;16.228;2023-04-25T08:32:34;22.80;35.90
18654;DHT22;9456;47.824;16.228;2023-04-25T08:35:03;22.50;34.20
18654;DHT22;9456;47.824;16.228;2023-04-25T08:37:32;21.60;35.90
18654;DHT22;9456;47.824;16.228;2023-04-25T08:40:02;21.20;37.70
18654;DHT22;9456;47.824;16.228;2023-04-25T08:42:33;21.20;37.90
18654;DHT22;9456;47.824;16.228;2023-04-25T08:45:02;22.60;35.60
18654;DHT22;9456;47.824;16.228;2023-04-25T08:47:31;23.70;34.10
18654;DHT22;9456;47.824;16.228;2023-04-25T08:50:00;23.50;33.50
18654;DHT22;9456;47.824;16.228;2023-04-25T08:52:30;23.30;33.40
18654;DHT22;9456;47.824;16.228;2023-04-25T08:55:00;21.80;35.30
18654;DHT22;9456;47.824;16.228;2023-04-25T08:57:29;21.40;37.40
18654;DHT22;9456;47.824;16.228;2023-04-25T08:59:58;22.30;36.70
18654;DHT22;9456;47.824;16.228;2023-04-25T09:02:27;23.10;35.20
18654;DHT22;9456;47.824;16.228;2023-04-25T09:04:56;23.30;33.80
18654;DHT22;9456;47.824;16.228;2023-04-25T09:07:25;24.00;33.50
18654;DHT22;9456;47.824;16.228;2023-04-25T09:09:54;24.50;33.90
18654;DHT22;9456;47.824;16.228;2023-04-25T09:12:23;24.30;33.10
18654;DHT22;9456;47.824;16.228;2023-04-25T09:15:06;23.90;32.10
18654;DHT22;9456;47.824;16.228;2023-04-25T09:17:35;24.60;34.50
18654;DHT22;9456;47.824;16.228;2023-04-25T09:20:10;25.50;34.80
18654;DHT22;9456;47.824;16.228;2023-04-25T09:22:38;25.80;28.90
18654;DHT22;9456;47.824;16.228;2023-04-25T09:25:10;24.80;30.90
18654;DHT22;9456;47.824;16.228;2023-04-25T09:27:49;24.80;30.80
18654;DHT22;9456;47.824;16.228;2023-04-25T09:30:26;25.30;30.90
18654;DHT22;9456;47.824;16.228;2023-04-25T09:32:49;23.70;30.90
18654;DHT22;9456;47.824;16.228;2023-04-25T09:35:25;22.50;32.20
18654;DHT22;9456;47.824;16.228;2023-04-25T09:37:55;21.70;32.50
18654;DHT22;9456;47.824;16.228;2023-04-25T09:40:23;20.70;33.60
18654;DHT22;9456;47.824;16.228;2023-04-25T09:42:52;19.90;34.80
18654;DHT22;9456;47.824;16.228;2023-04-25T09:45:21;20.10;33.80
18654;DHT22;9456;47.824;16.228;2023-04-25T09:47:50;21.40;31.70
18654;DHT22;9456;47.824;16.228;2023-04-25T09:50:19;22.80;32.00
18654;DHT22;9456;47.824;16.228;2023-04-25T09:52:51;24.40;32.80
18654;DHT22;9456;47.824;16.228;2023-04-25T09:55:20;26.00;30.70
18654;DHT22;9456;47.824;16.228;2023-04-25T09:57:49;26.30;27.40
18654;DHT22;9456;47.824;16.228;2023-04-25T10:00:19;26.20;27.20
18654;DHT22;9456;47.824;16.228;2023-04-25T10:02:49;26.10;27.80
18654;DHT22;9456;47.824;16.228;2023-04-25T10:05:18;25.70;27.30
18654;DHT22;9456;47.824;16.228;2023-04-25T10:07:46;25.60;27.60
18654;DHT22;9456;47.824;16.228;2023-04-25T10:10:16;25.20;28.10
18654;DHT22;9456;47.824;16.228;2023-04-25T10:12:44;24.70;28.90
18654;DHT22;9456;47.824;16.228;2023-04-25T10:15:14;23.80;28.50
18654;DHT22;9456;47.824;16.228;2023-04-25T10:17:43;22.80;30.00
18654;DHT22;9456;47.824;16.228;2023-04-25T10:20:12;22.60;32.40
18654;DHT22;9456;47.824;16.228;2023-04-25T10:22:42;23.10;31.00
18654;DHT22;9456;47.824;16.228;2023-04-25T10:25:11;24.50;30.90
18654;DHT22;9456;47.824;16.228;2023-04-25T10:27:41;25.20;28.10
18654;DHT22;9456;47.824;16.228;2023-04-25T10:30:13;25.50;27.60
18654;DHT22;9456;47.824;16.228;2023-04-25T10:32:40;25.00;28.20
18654;DHT22;9456;47.824;16.228;2023-04-25T10:35:14;24.30;29.30
18654;DHT22;9456;47.824;16.228;2023-04-25T10:38:00;23.80;31.40
18654;DHT22;9456;47.824;16.228;2023-04-25T10:40:29;23.10;30.50
18654;DHT22;9456;47.824;16.228;2023-04-25T10:43:33;22.50;31.40
18654;DHT22;9456;47.824;16.228;2023-04-25T10:45:29;21.50;30.20
18654;DHT22;9456;47.824;16.228;2023-04-25T10:48:00;20.60;32.10
18654;DHT22;9456;47.824;16.228;2023-04-25T10:50:37;19.40;33.80
18654;DHT22;9456;47.824;16.228;2023-04-25T10:53:16;18.60;35.70
18654;DHT22;9456;47.824;16.228;2023-04-25T10:55:51;18.20;37.00
18654;DHT22;9456;47.824;16.228;2023-04-25T10:58:23;17.80;42.60
18654;DHT22;9456;47.824;16.228;2023-04-25T11:00:52;17.40;45.10
18654;DHT22;9456;47.824;16.228;2023-04-25T11:03:22;17.00;46.10
18654;DHT22;9456;47.824;16.228;2023-04-25T11:05:51;16.80;46.50
18654;DHT22;9456;47.824;16.228;2023-04-25T11:08:23;16.70;46.30
18654;DHT22;9456;47.824;16.228;2023-04-25T11:10:49;16.60;47.10
18654;DHT22;9456;47.824;16.228;2023-04-25T11:13:21;16.60;47.50
18654;DHT22;9456;47.824;16.228;2023-04-25T11:15:53;16.80;47.10
18654;DHT22;9456;47.824;16.228;2023-04-25T11:18:25;16.90;46.70
18654;DHT22;9456;47.824;16.228;2023-04-25T11:20:52;17.20;46.90
18654;DHT22;9456;47.824;16.228;2023-04-25T11:23:21;17.70;46.20
18654;DHT22;9456;47.824;16.228;2023-04-25T11:25:50;18.50;44.80
18654;DHT22;9456;47.824;16.228;2023-04-25T11:28:22;18.80;43.10
18654;DHT22;9456;47.824;16.228;2023-04-25T11:30:51;18.90;41.90
18654;DHT22;9456;47.824;16.228;2023-04-25T11:33:23;19.00;41.90
18654;DHT22;9456;47.824;16.228;2023-04-25T11:35:53;18.90;41.70
18654;DHT22;9456;47.824;16.228;2023-04-25T11:38:22;19.00;41.10
18654;DHT22;9456;47.824;16.228;2023-04-25T11:40:54;19.20;38.10
18654;DHT22;9456;47.824;16.228;2023-04-25T11:43:23;19.20;38.70
18654;DHT22;9456;47.824;16.228;2023-04-25T11:45:52;19.40;38.70
18654;DHT22;9456;47.824;16.228;2023-04-25T11:48:21;19.30;39.00
18654;DHT22;9456;47.824;16.228;2023-04-25T11:50:50;19.00;38.10
18654;DHT22;9456;47.824;16.228;2023-04-25T11:53:19;18.60;37.30
18654;DHT22;9456;47.824;16.228;2023-04-25T11:55:49;18.50;38.80
18654;DHT22;9456;47.824;16.228;2023-04-25T11:58:18;18.50;37.10
18654;DHT22;9456;47.824;16.228;2023-04-25T12:00:47;18.40;36.80
18654;DHT22;9456;47.824;16.228;2023-04-25T12:03:17;18.50;38.60
18654;DHT22;9456;47.824;16.228;2023-04-25T12:05:45;18.70;40.80
18654;DHT22;9456;47.824;16.228;2023-04-25T12:08:15;19.00;40.80
18654;DHT22;9456;47.824;16.228;2023-04-25T12:10:44;19.20;41.50
18654;DHT22;9456;47.824;16.228;2023-04-25T12:13:20;19.00;41.60
18654;DHT22;9456;47.824;16.228;2023-04-25T12:15:49;18.80;42.20
18654;DHT22;9456;47.824;16.228;2023-04-25T12:18:22;18.50;44.30
18654;DHT22;9456;47.824;16.228;2023-04-25T12:20:50;18.40;45.80
18654;DHT22;9456;47.824;16.228;2023-04-25T12:23:20;18.30;46.10
18654;DHT22;9456;47.824;16.228;2023-04-25T12:25:49;17.80;46.30
18654;DHT22;9456;47.824;16.228;2023-04-25T12:28:19;17.30;48.30
18654;DHT22;9456;47.824;16.228;2023-04-25T12:30:55;16.90;49.20
18654;DHT22;9456;47.824;16.228;2023-04-25T12:33:24;16.70;50.40
18654;DHT22;9456;47.824;16.228;2023-04-25T12:35:53;16.50;49.70
18654;DHT22;9456;47.824;16.228;2023-04-25T12:38:25;16.50;50.30
18654;DHT22;9456;47.824;16.228;2023-04-25T12:40:54;16.50;50.30
18654;DHT22;9456;47.824;16.228;2023-04-25T12:43:23;16.40;50.70
18654;DHT22;9456;47.824;16.228;2023-04-25T12:45:53;15.90;51.50
18654;DHT22;9456;47.824;16.228;2023-04-25T12:48:22;15.60;52.70
18654;DHT22;9456;47.824;16.228;2023-04-25T12:50:51;15.70;52.80
18654;DHT22;9456;47.824;16.228;2023-04-25T12:53:21;15.90;52.50
18654;DHT22;9456;47.824;16.228;2023-04-25T12:55:49;16.10;52.10
18654;DHT22;9456;47.824;16.228;2023-04-25T12:58:18;16.20;51.80
18654;DHT22;9456;47.824;16.228;2023-04-25T13:00:47;16.30;51.60
18654;DHT22;9456;47.824;16.228;2023-04-25T13:03:16;16.30;50.40
18654;DHT22;9456;47.824;16.228;2023-04-25T13:05:45;16.40;50.90
18654;DHT22;9456;47.824;16.228;2023-04-25T13:08:14;16.50;50.40
18654;DHT22;9456;47.824;16.228;2023-04-25T13:10:43;16.40;50.70
18654;DHT22;9456;47.824;16.228;2023-04-25T13:13:12;16.20;50.40
18654;DHT22;9456;47.824;16.228;2023-04-25T13:15:41;16.00;51.80
18654;DHT22;9456;47.824;16.228;2023-04-25T13:18:10;15.80;51.90
18654;DHT22;9456;47.824;16.228;2023-04-25T13:20:39;15.40;52.60
18654;DHT22;9456;47.824;16.228;2023-04-25T13:23:08;15.30;53.00
18654;DHT22;9456;47.824;16.228;2023-04-25T13:25:37;15.60;52.80
18654;DHT22;9456;47.824;16.228;2023-04-25T13:28:07;15.70;52.30
18654;DHT22;9456;47.824;16.228;2023-04-25T13:30:36;15.90;51.80
18654;DHT22;9456;47.824;16.228;2023-04-25T13:33:05;15.90;51.40
18654;DHT22;9456;47.824;16.228;2023-04-25T13:35:34;15.70;51.40
18654;DHT22;9456;47.824;16.228;2023-04-25T13:38:03;15.60;52.60
18654;DHT22;9456;47.824;16.228;2023-04-25T13:40:32;15.70;53.00
18654;DHT22;9456;47.824;16.228;2023-04-25T13:43:01;16.00;53.10
18654;DHT22;9456;47.824;16.228;2023-04-25T13:45:31;16.30;51.90
18654;DHT22;9456;47.824;16.228;2023-04-25T13:47:59;16.40;51.60
18654;DHT22;9456;47.824;16.228;2023-04-25T13:50:29;16.40;51.30
18654;DHT22;9456;47.824;16.228;2023-04-25T13:52:58;16.30;52.10
18654;DHT22;9456;47.824;16.228;2023-04-25T13:55:27;16.50;51.30
18654;DHT22;9456;47.824;16.228;2023-04-25T13:57:56;16.60;51.50
18654;DHT22;9456;47.824;16.228;2023-04-25T14:00:25;16.80;52.00
18654;DHT22;9456;47.824;16.228;2023-04-25T14:02:54;17.20;50.10
18654;DHT22;9456;47.824;16.228;2023-04-25T14:05:23;17.40;48.70
18654;DHT22;9456;47.824;16.228;2023-04-25T14:07:52;17.40;48.10
18654;DHT22;9456;47.824;16.228;2023-04-25T14:10:22;17.50;49.50
18654;DHT22;9456;47.824;16.228;2023-04-25T14:12:51;17.60;49.40
18654;DHT22;9456;47.824;16.228;2023-04-25T14:15:20;17.60;49.10
18654;DHT22;9456;47.824;16.228;2023-04-25T14:17:49;17.80;49.10
18654;DHT22;9456;47.824;16.228;2023-04-25T14:20:18;18.00;48.80
18654;DHT22;9456;47.824;16.228;2023-04-25T14:22:48;18.20;47.90
18654;DHT22;9456;47.824;16.228;2023-04-25T14:25:17;18.00;46.10
18654;DHT22;9456;47.824;16.228;2023-04-25T14:27:46;17.50;44.60
18654;DHT22;9456;47.824;16.228;2023-04-25T14:30:15;17.00;46.70
18654;DHT22;9456;47.824;16.228;2023-04-25T14:32:44;16.90;47.30
18654;DHT22;9456;47.824;16.228;2023-04-25T14:35:14;16.70;47.30
18654;DHT22;9456;47.824;16.228;2023-04-25T14:37:43;16.40;48.60
18654;DHT22;9456;47.824;16.228;2023-04-25T14:40:13;16.40;49.00
18654;DHT22;9456;47.824;16.228;2023-04-25T14:42:42;16.40;48.30
18654;DHT22;9456;47.824;16.228;2023-04-25T14:45:12;16.30;47.70
18654;DHT22;9456;47.824;16.228;2023-04-25T14:47:41;16.30;48.50
18654;DHT22;9456;47.824;16.228;2023-04-25T14:50:11;16.30;47.10
18654;DHT22;9456;47.824;16.228;2023-04-25T14:52:40;16.20;47.90
18654;DHT22;9456;47.824;16.228;2023-04-25T14:55:09;16.20;47.50
18654;DHT22;9456;47.824;16.228;2023-04-25T14:57:39;16.10;47.20
18654;DHT22;9456;47.824;16.228;2023-04-25T15:00:10;15.90;46.90
18654;DHT22;9456;47.824;16.228;2023-04-25T15:02:42;15.70;46.90
18654;DHT22;9456;47.824;16.228;2023-04-25T15:05:11;15.60;47.10
18654;DHT22;9456;47.824;16.228;2023-04-25T15:07:40;15.50;47.70
18654;DHT22;9456;47.824;16.228;2023-04-25T15:10:10;15.50;47.80
18654;DHT22;9456;47.824;16.228;2023-04-25T15:12:39;15.50;47.50
18654;DHT22;9456;47.824;16.228;2023-04-25T15:15:10;15.60;48.20
18654;DHT22;9456;47.824;16.228;2023-04-25T15:17:40;15.70;47.30
18654;DHT22;9456;47.824;16.228;2023-04-25T15:20:10;15.60;46.30
18654;DHT22;9456;47.824;16.228;2023-04-25T15:22:39;15.70;46.70
18654;DHT22;9456;47.824;16.228;2023-04-25T15:25:09;15.60;46.10
18654;DHT22;9456;47.824;16.228;2023-04-25T15:27:38;15.60;46.60
18654;DHT22;9456;47.824;16.228;2023-04-25T15:30:09;15.60;46.80
18654;DHT22;9456;47.824;16.228;2023-04-25T15:32:39;15.80;47.20
18654;DHT22;9456;47.824;16.228;2023-04-25T15:35:10;15.80;48.10
18654;DHT22;9456;47.824;16.228;2023-04-25T15:37:39;15.80;47.20
18654;DHT22;9456;47.824;16.228;2023-04-25T15:40:10;15.80;47.60
18654;DHT22;9456;47.824;16.228;2023-04-25T15:42:39;15.80;47.30
18654;DHT22;9456;47.824;16.228;2023-04-25T15:45:09;15.80;47.30
18654;DHT22;9456;47.824;16.228;2023-04-25T15:47:37;15.70;47.60